createdAt,value
2022-11-24T00:00:17.629Z,100229.75
2022-11-24T00:00:49.420Z,100228.19
2022-11-24T00:01:23.762Z,100234.03
2022-11-24T00:01:55.301Z,100231.31
2022-11-24T00:02:31.121Z,100227.78
2022-11-24T00:03:05.822Z,100234.03
2022-11-24T00:03:42.987Z,100227.41
2022-11-24T00:04:14.895Z,100229.03
2022-11-24T00:04:46.510Z,100227.84
2022-11-24T00:05:20.452Z,100227.09
2022-11-24T00:05:54.682Z,100227.84
2022-11-24T00:06:27.037Z,100231.75
2022-11-24T00:06:58.720Z,100223.97
2022-11-24T00:07:32.583Z,100221.69
2022-11-24T00:08:04.625Z,100225.16
2022-11-24T00:08:43.363Z,100219.34
2022-11-24T00:09:15.085Z,100213.16
2022-11-24T00:09:46.777Z,100222.06
2022-11-24T00:10:18.456Z,100217.78
2022-11-24T00:10:50.045Z,100213.16
2022-11-24T00:11:24.555Z,100212.78
2022-11-24T00:11:56.129Z,100216.69
2022-11-24T00:12:29.904Z,100218.56
2022-11-24T00:13:01.677Z,100221.28
2022-11-24T00:13:34.068Z,100223.25
2022-11-24T00:14:09.845Z,100235.25
2022-11-24T00:14:41.317Z,100232.53
2022-11-24T00:15:12.864Z,100230.19
2022-11-24T00:15:44.374Z,100232.53
2022-11-24T00:16:21.825Z,100252.34
2022-11-24T00:16:53.725Z,100246.50
2022-11-24T00:17:25.452Z,100249.66
2022-11-24T00:17:59.232Z,100251.56
2022-11-24T00:18:31.265Z,100246.88
2022-11-24T00:19:04.774Z,100255.06
2022-11-24T00:19:36.484Z,100251.53
2022-11-24T00:20:08.766Z,100267.47
2022-11-24T00:20:40.502Z,100254.22
2022-11-24T00:21:17.902Z,100257.34
2022-11-24T00:21:52.183Z,100260.47
2022-11-24T00:22:26.200Z,100259.69
2022-11-24T00:22:57.767Z,100257.78
2022-11-24T00:23:29.335Z,100253.13
2022-11-24T00:24:06.392Z,100267.88
2022-11-24T00:24:40.181Z,100260.06
2022-11-24T00:25:11.741Z,100262.06
2022-11-24T00:25:43.617Z,100258.50
2022-11-24T00:26:18.478Z,100261.28
2022-11-24T00:26:50.242Z,100256.56
2022-11-24T00:27:24.324Z,100257.00
2022-11-24T00:27:56.297Z,100261.22
2022-11-24T00:28:27.997Z,100258.91
2022-11-24T00:29:02.045Z,100261.22
2022-11-24T00:29:37.834Z,100252.31
2022-11-24T00:30:12.049Z,100263.56
2022-11-24T00:30:44.076Z,100251.16
2022-11-24T00:31:23.777Z,100257.78
2022-11-24T00:31:59.553Z,100250.75
2022-11-24T00:32:33.432Z,100248.81
2022-11-24T00:33:05.294Z,100259.28
2022-11-24T00:33:36.956Z,100253.88
2022-11-24T00:34:13.471Z,100262.78
2022-11-24T00:34:44.997Z,100260.78
2022-11-24T00:35:18.945Z,100260.41
2022-11-24T00:36:00.729Z,100251.09
2022-11-24T00:36:34.791Z,100258.88
2022-11-24T00:37:06.289Z,100260.78
2022-11-24T00:37:40.171Z,100255.00
2022-11-24T00:38:14.550Z,100254.56
2022-11-24T00:38:47.007Z,100251.84
2022-11-24T00:39:23.922Z,100253.41
2022-11-24T00:39:57.012Z,100248.38
2022-11-24T00:40:33.609Z,100258.84
2022-11-24T00:41:06.930Z,100253.00
2022-11-24T00:41:39.072Z,100260.00
2022-11-24T00:42:14.272Z,100254.56
2022-11-24T00:42:48.026Z,100260.78
2022-11-24T00:43:21.936Z,100258.84
2022-11-24T00:43:53.824Z,100263.13
2022-11-24T00:44:25.322Z,100258.84
2022-11-24T00:44:56.785Z,100258.44
2022-11-24T00:45:30.727Z,100266.22
2022-11-24T00:46:02.373Z,100259.22
2022-11-24T00:46:34.297Z,100251.84
2022-11-24T00:47:06.656Z,100255.75
2022-11-24T00:47:38.416Z,100253.00
2022-11-24T00:48:13.085Z,100252.22
2022-11-24T00:48:47.312Z,100265.81
2022-11-24T00:49:19.104Z,100258.84
2022-11-24T00:49:53.062Z,100254.56
2022-11-24T00:50:24.747Z,100264.25
2022-11-24T00:51:11.501Z,100261.94
2022-11-24T00:51:47.217Z,100256.50
2022-11-24T00:52:18.780Z,100267.69
2022-11-24T00:52:50.467Z,100264.25
2022-11-24T00:53:22.075Z,100268.91
2022-11-24T00:53:54.473Z,100272.00
2022-11-24T00:54:26.202Z,100273.56
2022-11-24T00:54:57.824Z,100267.75
2022-11-24T00:55:30.877Z,100275.88
2022-11-24T00:56:05.897Z,100269.69
2022-11-24T00:56:37.680Z,100265.78
2022-11-24T00:57:13.640Z,100270.41
2022-11-24T00:57:48.461Z,100273.13
2022-11-24T00:58:20.561Z,100271.63
2022-11-24T00:58:55.783Z,100271.56
2022-11-24T00:59:29.843Z,100268.84
2022-11-24T01:00:01.353Z,100267.34
2022-11-24T01:00:32.828Z,100277.41
2022-11-24T01:01:11.033Z,100279.69
2022-11-24T01:01:45.496Z,100285.16
2022-11-24T01:02:20.251Z,100282.41
2022-11-24T01:02:55.683Z,100282.03
2022-11-24T01:03:29.728Z,100281.25
2022-11-24T01:04:02.030Z,100278.91
2022-11-24T01:04:34.198Z,100279.63
2022-11-24T01:05:15.358Z,100282.34
2022-11-24T01:05:46.998Z,100280.84
2022-11-24T01:06:22.062Z,100285.06
2022-11-24T01:06:56.261Z,100284.69
2022-11-24T01:07:27.950Z,100278.06
2022-11-24T01:07:59.775Z,100297.88
2022-11-24T01:08:33.207Z,100293.25
2022-11-24T01:09:04.940Z,100284.63
2022-11-24T01:09:43.258Z,100295.09
2022-11-24T01:10:16.177Z,100288.91
2022-11-24T01:10:47.791Z,100293.19
2022-11-24T01:11:22.951Z,100297.47
2022-11-24T01:12:04.148Z,100291.97
2022-11-24T01:12:40.516Z,100281.50
2022-11-24T01:13:13.465Z,100292.81
2022-11-24T01:13:50.223Z,100290.78
2022-11-24T01:14:23.799Z,100283.06
2022-11-24T01:14:55.455Z,100286.56
2022-11-24T01:15:30.008Z,100290.06
2022-11-24T01:16:01.699Z,100290.78
2022-11-24T01:16:38.727Z,100280.72
2022-11-24T01:17:14.892Z,100279.50
2022-11-24T01:17:50.415Z,100283.78
2022-11-24T01:18:22.145Z,100287.28
2022-11-24T01:18:58.441Z,100289.56
2022-11-24T01:19:30.394Z,100296.56
2022-11-24T01:20:05.198Z,100295.00
2022-11-24T01:20:37.601Z,100290.72
2022-11-24T01:21:13.895Z,100296.56
2022-11-24T01:21:48.407Z,100297.28
2022-11-24T01:22:24.861Z,100298.06
2022-11-24T01:22:59.196Z,100307.75
2022-11-24T01:23:30.886Z,100305.81
2022-11-24T01:24:05.673Z,100300.38
2022-11-24T01:24:40.464Z,100308.13
2022-11-24T01:25:12.237Z,100304.25
2022-11-24T01:25:43.965Z,100308.13
2022-11-24T01:26:21.636Z,100308.19
2022-11-24T01:26:53.435Z,100306.59
2022-11-24T01:27:27.448Z,100302.69
2022-11-24T01:28:01.429Z,100306.97
2022-11-24T01:28:33.422Z,100299.97
2022-11-24T01:29:05.523Z,100292.97
2022-11-24T01:29:42.568Z,100296.09
2022-11-24T01:30:14.380Z,100300.38
2022-11-24T01:30:57.488Z,100308.88
2022-11-24T01:31:29.327Z,100306.59
2022-11-24T01:32:01.141Z,100303.81
2022-11-24T01:32:33.868Z,100295.69
2022-11-24T01:33:05.528Z,100299.19
2022-11-24T01:33:40.332Z,100298.81
2022-11-24T01:34:14.299Z,100303.44
2022-11-24T01:34:45.854Z,100300.75
2022-11-24T01:35:17.574Z,100299.19
2022-11-24T01:35:49.186Z,100303.44
2022-11-24T01:36:23.286Z,100303.44
2022-11-24T01:36:54.916Z,100297.97
2022-11-24T01:37:28.704Z,100292.56
2022-11-24T01:38:00.372Z,100299.53
2022-11-24T01:38:34.599Z,100310.78
2022-11-24T01:39:08.659Z,100306.53
2022-11-24T01:39:42.808Z,100302.25
2022-11-24T01:40:14.520Z,100302.25
2022-11-24T01:40:48.842Z,100305.75
2022-11-24T01:41:25.882Z,100298.34
2022-11-24T01:42:01.697Z,100294.41
2022-11-24T01:42:52.536Z,100298.69
2022-11-24T01:44:30.462Z,100311.88
2022-11-24T01:45:26.935Z,100307.25
2022-11-24T01:46:06.224Z,100308.75
2022-11-24T01:46:47.206Z,100315.72
2022-11-24T01:47:34.106Z,100318.81
2022-11-24T01:48:11.184Z,100311.03
2022-11-24T01:49:07.594Z,100309.09
2022-11-24T01:49:46.943Z,100317.22
2022-11-24T01:50:18.478Z,100305.63
2022-11-24T01:50:55.529Z,100312.19
2022-11-24T01:51:29.706Z,100311.41
2022-11-24T01:52:23.913Z,100313.31
2022-11-24T01:52:56.580Z,100312.53
2022-11-24T01:53:28.299Z,100311.75
2022-11-24T01:54:11.306Z,100314.09
2022-11-24T01:54:48.593Z,100310.19
2022-11-24T01:55:23.976Z,100312.59
2022-11-24T01:55:55.696Z,100309.41
2022-11-24T01:56:28.577Z,100311.41
2022-11-24T01:57:16.578Z,100314.88
2022-11-24T01:57:58.904Z,100315.66
2022-11-24T01:58:34.639Z,100311.41
2022-11-24T01:59:10.719Z,100313.38
2022-11-24T01:59:43.550Z,100310.97
2022-11-24T02:00:19.293Z,100304.78
2022-11-24T02:00:52.100Z,100318.75
2022-11-24T02:01:24.847Z,100310.59
2022-11-24T02:01:57.143Z,100320.31
2022-11-24T02:02:30.103Z,100312.19
2022-11-24T02:03:02.313Z,100316.44
2022-11-24T02:03:36.755Z,100324.66
2022-11-24T02:04:13.553Z,100324.28
2022-11-24T02:04:46.836Z,100329.28
2022-11-24T02:05:28.323Z,100325.06
2022-11-24T02:06:11.372Z,100332.06
2022-11-24T02:06:45.576Z,100320.78
2022-11-24T02:07:18.142Z,100319.22
2022-11-24T02:07:51.227Z,100327.00
2022-11-24T02:08:39.156Z,100323.84
2022-11-24T02:09:19.693Z,100326.28
2022-11-24T02:10:04.865Z,100310.31
2022-11-24T02:10:37.551Z,100321.22
2022-11-24T02:11:09.708Z,100318.13
2022-11-24T02:11:45.979Z,100317.72
2022-11-24T02:12:17.584Z,100323.19
2022-11-24T02:12:52.119Z,100320.50
2022-11-24T02:13:26.385Z,100316.56
2022-11-24T02:14:01.408Z,100312.72
2022-11-24T02:14:38.133Z,100326.31
2022-11-24T02:15:11.045Z,100321.66
2022-11-24T02:15:42.985Z,100322.84
2022-11-24T02:16:14.885Z,100324.78
2022-11-24T02:16:50.267Z,100325.56
2022-11-24T02:17:22.585Z,100328.25
2022-11-24T02:17:54.066Z,100330.56
2022-11-24T02:18:25.558Z,100323.22
2022-11-24T02:18:57.469Z,100321.72
2022-11-24T02:19:44.280Z,100322.09
2022-11-24T02:20:19.426Z,100333.00
2022-11-24T02:20:53.563Z,100322.16
2022-11-24T02:21:25.299Z,100326.00
2022-11-24T02:22:00.374Z,100336.84
2022-11-24T02:22:44.114Z,100339.25
2022-11-24T02:23:30.669Z,100338.09
2022-11-24T02:24:08.323Z,100336.97
2022-11-24T02:24:48.434Z,100337.75
2022-11-24T02:25:25.715Z,100336.59
2022-11-24T02:26:26.639Z,100336.59
2022-11-24T02:26:58.035Z,100333.88
2022-11-24T02:27:30.550Z,100340.09
2022-11-24T02:28:06.127Z,100332.75
2022-11-24T02:28:38.163Z,100338.16
2022-11-24T02:29:11.625Z,100340.50
2022-11-24T02:29:43.508Z,100338.59
2022-11-24T02:30:15.074Z,100333.16
2022-11-24T02:30:46.942Z,100339.00
2022-11-24T02:31:18.849Z,100334.31
2022-11-24T02:32:00.478Z,100333.59
2022-11-24T02:32:38.477Z,100331.59
2022-11-24T02:33:12.217Z,100338.22
2022-11-24T02:33:44.162Z,100344.81
2022-11-24T02:34:21.437Z,100335.91
2022-11-24T02:35:03.991Z,100337.91
2022-11-24T02:35:37.876Z,100341.75
2022-11-24T02:36:09.570Z,100336.31
2022-11-24T02:36:41.304Z,100334.03
2022-11-24T02:37:12.944Z,100337.91
2022-11-24T02:37:49.711Z,100343.31
2022-11-24T02:38:35.406Z,100346.03
2022-11-24T02:39:12.424Z,100339.88
2022-11-24T02:39:46.632Z,100338.69
2022-11-24T02:40:25.664Z,100345.66
2022-11-24T02:41:00.053Z,100346.09
2022-11-24T02:41:31.746Z,100353.50
2022-11-24T02:42:08.159Z,100339.09
2022-11-24T02:42:44.927Z,100343.38
2022-11-24T02:43:20.827Z,100351.94
2022-11-24T02:43:56.200Z,100349.56
2022-11-24T02:44:33.081Z,100348.00
2022-11-24T02:45:05.628Z,100347.66
2022-11-24T02:45:37.309Z,100350.34
2022-11-24T02:46:10.803Z,100353.84
2022-11-24T02:46:43.762Z,100355.84
2022-11-24T02:47:15.241Z,100348.44
2022-11-24T02:47:46.895Z,100353.06
2022-11-24T02:48:20.773Z,100350.34
2022-11-24T02:48:55.033Z,100352.28
2022-11-24T02:49:26.794Z,100357.34
2022-11-24T02:49:58.262Z,100344.16
2022-11-24T02:50:30.154Z,100348.78
2022-11-24T02:51:01.831Z,100351.56
2022-11-24T02:51:34.411Z,100344.16
2022-11-24T02:52:09.115Z,100349.56
2022-11-24T02:52:41.084Z,100350.00
2022-11-24T02:53:12.580Z,100344.94
2022-11-24T02:53:44.372Z,100348.06
2022-11-24T02:54:18.067Z,100351.19
2022-11-24T02:54:49.645Z,100349.63
2022-11-24T02:55:21.407Z,100353.91
2022-11-24T02:55:53.340Z,100348.84
2022-11-24T02:56:26.075Z,100353.91
2022-11-24T02:56:57.915Z,100345.34
2022-11-24T02:57:32.063Z,100354.63
2022-11-24T02:58:03.850Z,100355.06
2022-11-24T02:58:40.637Z,100355.06
2022-11-24T02:59:16.566Z,100347.28
2022-11-24T02:59:51.168Z,100350.78
2022-11-24T03:00:23.396Z,100350.00
2022-11-24T03:00:55.317Z,100344.22
2022-11-24T03:01:32.744Z,100356.63
2022-11-24T03:02:07.572Z,100353.56
2022-11-24T03:02:44.845Z,100352.78
2022-11-24T03:03:19.152Z,100360.59
2022-11-24T03:03:53.686Z,100352.41
2022-11-24T03:04:25.486Z,100352.78
2022-11-24T03:05:03.629Z,100358.25
2022-11-24T03:05:35.304Z,100351.97
2022-11-24T03:06:08.298Z,100347.75
2022-11-24T03:06:43.628Z,100356.25
2022-11-24T03:07:15.322Z,100358.25
2022-11-24T03:07:47.265Z,100346.56
2022-11-24T03:08:21.345Z,100361.75
2022-11-24T03:08:53.189Z,100350.47
2022-11-24T03:09:33.238Z,100353.59
2022-11-24T03:10:07.425Z,100343.50
2022-11-24T03:10:41.750Z,100350.06
2022-11-24T03:11:15.601Z,100348.91
2022-11-24T03:11:47.232Z,100352.03
2022-11-24T03:12:23.933Z,100349.34
2022-11-24T03:13:01.304Z,100343.91
2022-11-24T03:13:33.347Z,100350.13
2022-11-24T03:14:08.048Z,100353.59
2022-11-24T03:14:45.542Z,100342.75
2022-11-24T03:15:22.256Z,100346.63
2022-11-24T03:15:58.162Z,100345.06
2022-11-24T03:16:30.100Z,100354.41
2022-11-24T03:17:06.998Z,100349.34
2022-11-24T03:17:41.197Z,100343.50
2022-11-24T03:18:15.116Z,100355.19
2022-11-24T03:18:59.608Z,100350.47
2022-11-24T03:19:31.501Z,100351.25
2022-11-24T03:20:07.160Z,100349.34
2022-11-24T03:20:43.533Z,100349.34
2022-11-24T03:21:15.263Z,100351.28
2022-11-24T03:21:47.005Z,100348.97
2022-11-24T03:22:24.659Z,100351.69
2022-11-24T03:22:56.775Z,100356.34
2022-11-24T03:23:30.995Z,100354.00
2022-11-24T03:24:07.096Z,100358.28
2022-11-24T03:24:42.249Z,100359.41
2022-11-24T03:25:18.628Z,100358.28
2022-11-24T03:25:58.348Z,100364.97
2022-11-24T03:26:36.526Z,100359.06
2022-11-24T03:27:08.551Z,100361.00
2022-11-24T03:27:42.383Z,100352.06
2022-11-24T03:28:16.521Z,100360.69
2022-11-24T03:28:48.453Z,100368.41
2022-11-24T03:29:20.032Z,100354.41
2022-11-24T03:29:57.048Z,100358.34
2022-11-24T03:30:28.627Z,100359.84
2022-11-24T03:31:03.158Z,100362.97
2022-11-24T03:31:37.173Z,100357.19
2022-11-24T03:32:11.443Z,100359.19
2022-11-24T03:32:44.687Z,100356.41
2022-11-24T03:33:18.893Z,100353.69
2022-11-24T03:33:52.288Z,100351.34
2022-11-24T03:34:24.099Z,100358.34
2022-11-24T03:34:58.296Z,100361.03
2022-11-24T03:35:30.043Z,100354.06
2022-11-24T03:36:04.237Z,100352.50
2022-11-24T03:36:40.490Z,100361.81
2022-11-24T03:37:14.224Z,100362.97
2022-11-24T03:37:47.757Z,100360.25
2022-11-24T03:38:19.450Z,100363.41
2022-11-24T03:38:51.143Z,100364.91
2022-11-24T03:39:27.396Z,100354.84
2022-11-24T03:40:05.842Z,100368.81
2022-11-24T03:40:37.596Z,100370.75
2022-11-24T03:41:12.425Z,100367.63
2022-11-24T03:41:48.571Z,100359.47
2022-11-24T03:42:30.852Z,100366.47
2022-11-24T03:43:12.678Z,100373.81
2022-11-24T03:43:44.597Z,100368.41
2022-11-24T03:44:17.802Z,100361.81
2022-11-24T03:45:04.201Z,100366.09
2022-11-24T03:45:51.369Z,100370.38
2022-11-24T03:46:29.404Z,100372.38
2022-11-24T03:47:07.093Z,100357.97
2022-11-24T03:47:44.392Z,100372.00
2022-11-24T03:48:24.132Z,100371.94
2022-11-24T03:48:58.078Z,100370.81
2022-11-24T03:49:43.496Z,100374.28
2022-11-24T03:50:15.187Z,100370.44
2022-11-24T03:50:56.735Z,100361.47
2022-11-24T03:51:28.576Z,100363.81
2022-11-24T03:52:08.149Z,100371.22
2022-11-24T03:52:40.181Z,100365.38
2022-11-24T03:53:16.688Z,100366.16
2022-11-24T03:53:48.436Z,100368.09
2022-11-24T03:54:23.785Z,100371.16
2022-11-24T03:54:55.646Z,100378.22
2022-11-24T03:55:27.304Z,100369.97
2022-11-24T03:55:59.668Z,100366.09
2022-11-24T03:56:31.442Z,100376.22
2022-11-24T03:57:07.658Z,100375.06
2022-11-24T03:57:42.288Z,100370.38
2022-11-24T03:58:19.619Z,100369.25
2022-11-24T03:58:51.829Z,100377.38
2022-11-24T03:59:23.452Z,100379.34
2022-11-24T04:00:00.673Z,100381.66
2022-11-24T04:00:34.820Z,100373.09
2022-11-24T04:01:09.711Z,100370.81
2022-11-24T04:01:41.535Z,100376.66
2022-11-24T04:02:21.881Z,100382.50
2022-11-24T04:02:54.375Z,100378.94
2022-11-24T04:03:26.950Z,100385.16
2022-11-24T04:04:11.410Z,100378.56
2022-11-24T04:04:48.439Z,100378.56
2022-11-24T04:05:23.557Z,100376.22
2022-11-24T04:05:57.629Z,100384.00
2022-11-24T04:06:38.965Z,100385.50
2022-11-24T04:07:10.677Z,100385.97
2022-11-24T04:07:42.291Z,100378.16
2022-11-24T04:08:19.915Z,100378.50
2022-11-24T04:08:53.652Z,100382.06
2022-11-24T04:09:26.884Z,100381.66
2022-11-24T04:10:03.616Z,100388.59
2022-11-24T04:10:42.242Z,100379.31
2022-11-24T04:11:35.351Z,100385.16
2022-11-24T04:12:25.919Z,100393.69
2022-11-24T04:12:57.851Z,100389.06
2022-11-24T04:13:29.426Z,100382.44
2022-11-24T04:14:02.870Z,100396.41
2022-11-24T04:14:34.931Z,100393.28
2022-11-24T04:15:06.972Z,100394.91
2022-11-24T04:15:40.618Z,100397.19
2022-11-24T04:16:14.963Z,100397.19
2022-11-24T04:16:52.309Z,100392.91
2022-11-24T04:17:26.404Z,100396.78
2022-11-24T04:18:04.099Z,100390.19
2022-11-24T04:18:41.805Z,100399.47
2022-11-24T04:19:23.147Z,100394.84
2022-11-24T04:19:54.787Z,100398.69
2022-11-24T04:20:32.226Z,100394.06
2022-11-24T04:21:03.995Z,100396.00
2022-11-24T04:21:41.601Z,100406.91
2022-11-24T04:22:16.334Z,100401.06
2022-11-24T04:22:53.052Z,100397.91
2022-11-24T04:23:24.796Z,100406.06
2022-11-24T04:23:59.092Z,100404.91
2022-11-24T04:24:31.151Z,100411.91
2022-11-24T04:25:08.656Z,100413.47
2022-11-24T04:25:43.416Z,100413.09
2022-11-24T04:26:15.747Z,100400.63
2022-11-24T04:26:55.672Z,100416.59
2022-11-24T04:27:29.450Z,100412.31
2022-11-24T04:28:04.928Z,100414.19
2022-11-24T04:28:37.021Z,100417.31
2022-11-24T04:29:12.439Z,100410.34
2022-11-24T04:29:55.128Z,100420.09
2022-11-24T04:30:32.324Z,100411.13
2022-11-24T04:31:07.966Z,100412.25
2022-11-24T04:31:39.643Z,100420.41
2022-11-24T04:32:11.434Z,100410.75
2022-11-24T04:32:48.035Z,100419.69
2022-11-24T04:33:22.277Z,100420.47
2022-11-24T04:33:54.200Z,100403.34
2022-11-24T04:34:28.522Z,100427.38
2022-11-24T04:35:01.605Z,100412.31
2022-11-24T04:35:37.389Z,100418.88
2022-11-24T04:36:09.083Z,100414.63
2022-11-24T04:36:40.945Z,100415.41
2022-11-24T04:37:12.777Z,100425.88
2022-11-24T04:37:47.567Z,100423.16
2022-11-24T04:39:20.030Z,100427.44
2022-11-24T04:39:24.086Z,100421.25
2022-11-24T04:39:59.472Z,100430.09
2022-11-24T04:40:31.204Z,100418.88
2022-11-24T04:41:05.740Z,100429.75
2022-11-24T04:41:42.471Z,100423.09
2022-11-24T04:42:19.365Z,100432.81
2022-11-24T04:42:55.342Z,100425.47
2022-11-24T04:43:37.697Z,100426.97
2022-11-24T04:44:13.146Z,100420.41
2022-11-24T04:44:51.246Z,100425.41
2022-11-24T04:45:29.536Z,100435.16
2022-11-24T04:46:03.831Z,100434.31
2022-11-24T04:46:39.850Z,100437.03
2022-11-24T04:47:20.571Z,100440.59
2022-11-24T04:47:54.643Z,100435.09
2022-11-24T04:48:28.363Z,100440.16
2022-11-24T04:49:05.792Z,100442.09
2022-11-24T04:49:41.564Z,100442.09
2022-11-24T04:50:17.311Z,100446.00
2022-11-24T04:50:48.806Z,100454.16
2022-11-24T04:51:30.366Z,100437.44
2022-11-24T04:52:14.643Z,100440.94
2022-11-24T04:52:56.622Z,100443.66
2022-11-24T04:53:30.592Z,100446.00
2022-11-24T04:54:09.100Z,100447.16
2022-11-24T04:54:56.386Z,100453.00
2022-11-24T04:55:33.557Z,100450.28
2022-11-24T04:56:08.399Z,100458.41
2022-11-24T04:56:47.089Z,100460.72
2022-11-24T04:57:25.299Z,100452.22
2022-11-24T04:57:56.738Z,100461.50
2022-11-24T04:58:31.303Z,100455.28
2022-11-24T04:59:08.815Z,100463.06
2022-11-24T04:59:40.242Z,100463.47
2022-11-24T05:00:21.552Z,100464.63
2022-11-24T05:00:53.053Z,100463.84
2022-11-24T05:01:24.871Z,100464.28
2022-11-24T05:01:59.791Z,100467.69
2022-11-24T05:02:31.260Z,100458.41
2022-11-24T05:03:05.521Z,100466.91
2022-11-24T05:03:44.540Z,100466.19
2022-11-24T05:04:23.406Z,100465.41
2022-11-24T05:05:02.115Z,100461.13
2022-11-24T05:05:38.008Z,100469.28
2022-11-24T05:06:15.010Z,100465.78
2022-11-24T05:06:49.320Z,100471.19
2022-11-24T05:07:22.373Z,100477.41
2022-11-24T05:07:56.260Z,100478.91
2022-11-24T05:08:33.628Z,100480.91
2022-11-24T05:09:09.059Z,100472.34
2022-11-24T05:10:03.784Z,100478.56
2022-11-24T05:10:35.339Z,100480.13
2022-11-24T05:11:15.246Z,100472.34
2022-11-24T05:11:56.370Z,100481.69
2022-11-24T05:12:33.828Z,100475.84
2022-11-24T05:13:14.847Z,100487.91
2022-11-24T05:13:52.272Z,100475.84
2022-11-24T05:14:30.383Z,100485.19
2022-11-24T05:15:13.820Z,100488.25
2022-11-24T05:15:54.183Z,100494.81
2022-11-24T05:16:31.256Z,100493.69
2022-11-24T05:17:02.885Z,100491.75
2022-11-24T05:17:39.955Z,100486.69
2022-11-24T05:18:13.968Z,100492.09
2022-11-24T05:18:46.043Z,100497.97
2022-11-24T05:19:29.863Z,100497.19
2022-11-24T05:20:06.235Z,100499.09
2022-11-24T05:20:46.902Z,100503.38
2022-11-24T05:21:23.898Z,100505.25
2022-11-24T05:21:59.888Z,100510.00
2022-11-24T05:22:37.284Z,100500.59
2022-11-24T05:23:11.991Z,100513.09
2022-11-24T05:23:47.615Z,100503.75
2022-11-24T05:24:19.076Z,100504.09
2022-11-24T05:24:55.612Z,100511.81
2022-11-24T05:25:29.670Z,100509.53
2022-11-24T05:26:04.840Z,100512.66
2022-11-24T05:26:41.392Z,100512.97
2022-11-24T05:27:18.762Z,100504.41
2022-11-24T05:27:52.839Z,100512.97
2022-11-24T05:28:40.418Z,100504.41
2022-11-24T05:29:12.170Z,100514.81
2022-11-24T05:29:50.161Z,100526.88
2022-11-24T05:30:27.040Z,100516.38
2022-11-24T05:31:10.056Z,100521.03
2022-11-24T05:31:43.999Z,100527.25
2022-11-24T05:32:20.981Z,100523.38
2022-11-24T05:32:58.122Z,100518.69
2022-11-24T05:33:36.111Z,100518.25
2022-11-24T05:34:11.198Z,100520.19
2022-11-24T05:34:52.118Z,100516.31
2022-11-24T05:35:26.548Z,100524.88
2022-11-24T05:36:12.466Z,100524.53
2022-11-24T05:36:58.401Z,100520.97
2022-11-24T05:37:31.560Z,100531.03
2022-11-24T05:38:04.863Z,100522.09
2022-11-24T05:38:41.268Z,100527.53
2022-11-24T05:39:15.484Z,100524.41
2022-11-24T05:40:00.460Z,100533.34
2022-11-24T05:40:42.570Z,100538.81
2022-11-24T05:41:26.031Z,100544.59
2022-11-24T05:41:57.673Z,100541.03
2022-11-24T05:42:48.419Z,100534.06
2022-11-24T05:43:22.699Z,100538.34
2022-11-24T05:43:56.776Z,100534.78
2022-11-24T05:44:34.068Z,100547.25
2022-11-24T05:45:18.289Z,100544.03
2022-11-24T05:45:58.788Z,100537.06
2022-11-24T05:46:45.536Z,100551.88
2022-11-24T05:47:23.480Z,100544.03
2022-11-24T05:48:05.434Z,100549.03
2022-11-24T05:48:49.631Z,100547.91
2022-11-24T05:49:21.032Z,100543.19
2022-11-24T05:49:52.548Z,100549.81
2022-11-24T05:50:26.472Z,100560.66
2022-11-24T05:50:58.570Z,100552.91
2022-11-24T05:51:39.094Z,100556.75
2022-11-24T05:52:10.867Z,100552.47
2022-11-24T05:52:50.307Z,100567.59
2022-11-24T05:53:32.257Z,100554.75
2022-11-24T05:54:09.906Z,100557.81
2022-11-24T05:54:57.043Z,100564.81
2022-11-24T05:55:33.446Z,100565.91
2022-11-24T05:56:10.666Z,100570.16
2022-11-24T05:56:48.659Z,100565.53
2022-11-24T05:57:27.439Z,100570.22
2022-11-24T05:58:04.224Z,100581.00
2022-11-24T05:58:46.668Z,100580.28
2022-11-24T05:59:24.954Z,100584.88
2022-11-24T06:00:10.849Z,100589.91
2022-11-24T06:01:02.913Z,100576.69
2022-11-24T06:02:27.086Z,100583.31
2022-11-24T06:02:54.212Z,100584.81
2022-11-24T06:03:30.264Z,100588.66
2022-11-24T06:04:04.854Z,100596.44
2022-11-24T06:04:42.052Z,100591.78
2022-11-24T06:05:19.645Z,100598.00
2022-11-24T06:05:56.876Z,100593.28
2022-11-24T06:06:33.192Z,100590.94
2022-11-24T06:07:09.896Z,100592.50
2022-11-24T06:07:47.083Z,100594.06
2022-11-24T06:08:30.882Z,100596.78
2022-11-24T06:09:08.383Z,100595.66
2022-11-24T06:09:44.279Z,100605.72
2022-11-24T06:10:22.031Z,100607.28
2022-11-24T06:11:17.959Z,100599.50
2022-11-24T06:11:56.159Z,100611.59
2022-11-24T06:12:27.662Z,100603.78
2022-11-24T06:13:22.334Z,100597.56
2022-11-24T06:14:11.330Z,100606.13
2022-11-24T06:15:09.930Z,100610.41
2022-11-24T06:16:09.032Z,100616.97
2022-11-24T06:16:52.533Z,100618.47
2022-11-24T06:17:33.127Z,100614.63
2022-11-24T06:18:17.459Z,100617.69
2022-11-24T06:19:12.305Z,100625.53
2022-11-24T06:19:50.189Z,100618.03
2022-11-24T06:20:32.628Z,100618.03
2022-11-24T06:21:11.307Z,100622.31
2022-11-24T06:21:48.508Z,100618.03
2022-11-24T06:22:23.018Z,100616.91
2022-11-24T06:23:00.357Z,100618.81
2022-11-24T06:23:44.368Z,100627.81
2022-11-24T06:24:35.967Z,100626.59
2022-11-24T06:27:44.432Z,100639.81
2022-11-24T06:28:34.323Z,100635.16
2022-11-24T06:29:16.124Z,100635.59
2022-11-24T06:29:54.337Z,100635.88
2022-11-24T06:30:37.316Z,100637.88
2022-11-24T06:31:14.782Z,100640.16
2022-11-24T06:32:13.559Z,100635.88
2022-11-24T06:32:51.424Z,100651.06
2022-11-24T06:33:35.389Z,100647.16
2022-11-24T06:35:30.044Z,100647.84
2022-11-24T06:36:21.335Z,100652.91
2022-11-24T06:37:02.447Z,100645.16
2022-11-24T06:37:45.329Z,100656.06
2022-11-24T06:38:24.377Z,100654.50
2022-11-24T06:39:17.852Z,100654.84
2022-11-24T06:39:59.793Z,100670.03
2022-11-24T06:41:00.219Z,100654.06
2022-11-24T06:41:41.075Z,100657.91
2022-11-24T06:42:41.099Z,100663.84
2022-11-24T06:43:22.741Z,100657.13
2022-11-24T06:44:11.226Z,100671.47
2022-11-24T06:44:52.317Z,100663.69
2022-11-24T06:45:33.561Z,100667.59
2022-11-24T06:46:17.095Z,100671.53
2022-11-24T06:46:59.845Z,100665.59
2022-11-24T06:47:42.052Z,100673.03
2022-11-24T06:48:39.907Z,100675.75
2022-11-24T06:49:28.591Z,100674.88
2022-11-24T06:50:15.790Z,100682.31
2022-11-24T06:50:52.280Z,100675.31
2022-11-24T06:51:31.980Z,100679.16
2022-11-24T06:52:27.532Z,100682.38
2022-11-24T06:53:11.099Z,100680.72
2022-11-24T06:53:45.781Z,100685.44
2022-11-24T06:54:43.274Z,100673.75
2022-11-24T06:56:25.156Z,100677.59
2022-11-24T06:57:08.673Z,100690.09
2022-11-24T06:57:51.656Z,100694.72
2022-11-24T06:58:32.157Z,100685.00
2022-11-24T06:59:07.201Z,100686.50
2022-11-24T06:59:41.242Z,100688.78
2022-11-24T07:00:19.040Z,100686.84
2022-11-24T07:00:56.219Z,100683.38